Time;durP1;ratioP1;P1;durP2;ratioP2;P2;SDS_P1;SDS_P2;PMS_P1;PMS_P2;Temp;Humidity;BMP_temperature;BMP_pressure;BME280_temperature;BME280_humidity;BME280_pressure;Samples;Min_cycle;Max_cycle;Signal;HPM_P1;HPM_P2
2022/06/15 00:01:08;;;;;;;6.00;3.83;;;;;;;18.64;100.00;96289.00;5008797;28;20288;-83
2022/06/15 00:03:37;;;;;;;3.50;3.20;;;;;;;18.61;100.00;96292.31;5011544;28;20259;-83
2022/06/15 00:06:08;;;;;;;4.38;3.42;;;;;;;18.58;100.00;96292.88;5011164;28;20199;-83
2022/06/15 00:08:36;;;;;;;5.80;3.63;;;;;;;18.53;100.00;96292.88;5000664;28;20227;-84
2022/06/15 00:11:09;;;;;;;4.63;3.73;;;;;;;18.41;100.00;96273.25;5011797;28;20199;-84
2022/06/15 00:13:36;;;;;;;4.00;3.45;;;;;;;18.35;100.00;96279.84;5018290;28;20232;-83
2022/06/15 00:16:06;;;;;;;4.30;3.60;;;;;;;18.25;100.00;96279.88;5008390;28;20218;-83
2022/06/15 00:18:33;;;;;;;4.23;3.50;;;;;;;18.12;100.00;96276.66;5008804;28;20210;-84
2022/06/15 00:21:01;;;;;;;5.37;3.90;;;;;;;18.15;100.00;96287.03;5016952;28;20207;-83
2022/06/15 00:23:30;;;;;;;5.23;3.90;;;;;;;18.13;100.00;96283.75;5008572;28;20207;-83
2022/06/15 00:25:58;;;;;;;6.87;3.77;;;;;;;18.11;100.00;96275.03;5012440;28;20214;-83
2022/06/15 00:28:26;;;;;;;4.30;3.78;;;;;;;18.09;100.00;96288.16;5008711;28;20199;-83
2022/06/15 00:30:54;;;;;;;4.97;4.20;;;;;;;18.17;100.00;96294.13;5004639;28;20210;-83
2022/06/15 00:33:23;;;;;;;4.40;3.70;;;;;;;18.20;100.00;96293.59;4997788;28;20342;-83
2022/06/15 00:36:00;;;;;;;4.60;3.80;;;;;;;18.13;100.00;96293.84;5011344;28;20207;-83
2022/06/15 00:38:29;;;;;;;5.37;3.83;;;;;;;18.12;100.00;96314.91;5010533;28;20198;-84
2022/06/15 00:40:57;;;;;;;7.60;4.10;;;;;;;18.03;100.00;96299.38;5008459;28;20194;-83
2022/06/15 00:43:35;;;;;;;4.33;3.60;;;;;;;17.99;100.00;96301.84;5009008;28;20207;-84
2022/06/15 00:46:14;;;;;;;4.60;4.07;;;;;;;17.90;100.00;96300.78;5007800;28;20245;-84
2022/06/15 00:48:44;;;;;;;4.00;3.70;;;;;;;17.91;100.00;96315.25;5018499;28;20269;-84
2022/06/15 00:51:11;;;;;;;4.97;3.80;;;;;;;17.92;100.00;96322.34;5009128;28;20234;-84
2022/06/15 00:53:40;;;;;;;4.63;3.93;;;;;;;17.92;100.00;96325.09;5008379;28;20312;-84
2022/06/15 00:56:09;;;;;;;4.20;3.80;;;;;;;17.95;100.00;96325.34;5019615;28;20207;-84
2022/06/15 00:58:38;;;;;;;6.40;4.00;;;;;;;17.96;100.00;96310.59;5011006;28;20211;-84
2022/06/15 01:01:06;;;;;;;4.80;3.93;;;;;;;17.96;100.00;96323.44;5003801;28;20200;-84
2022/06/15 01:03:34;;;;;;;4.17;3.77;;;;;;;17.94;100.00;96329.19;5007261;28;20204;-83
2022/06/15 01:06:09;;;;;;;6.07;4.00;;;;;;;17.89;100.00;96321.00;5009179;28;20297;-84
2022/06/15 01:08:47;;;;;;;3.90;3.60;;;;;;;17.68;100.00;96319.41;5003076;28;20217;-83
2022/06/15 01:11:38;;;;;;;6.47;4.23;;;;;;;17.62;100.00;96320.50;5024114;28;20222;-83
2022/06/15 01:14:38;;;;;;;4.97;4.47;;;;;;;17.61;100.00;96319.63;5013510;28;20222;-83
2022/06/15 01:17:17;;;;;;;3.97;3.67;;;;;;;17.63;100.00;96319.41;5007893;28;20246;-84
2022/06/15 01:20:15;;;;;;;5.20;3.97;;;;;;;17.57;100.00;96321.31;5018320;28;20213;-83
2022/06/15 01:23:06;;;;;;;6.03;4.10;;;;;;;17.45;100.00;96322.66;5001199;28;20317;-84
2022/06/15 01:25:40;;;;;;;5.97;4.20;;;;;;;17.34;100.00;96330.88;5000299;28;20306;-84
2022/06/15 01:28:33;;;;;;;5.50;4.43;;;;;;;17.30;100.00;96332.50;4999968;28;20207;-84
2022/06/15 01:31:12;;;;;;;4.80;4.30;;;;;;;17.33;100.00;96312.03;5001368;28;20206;-84
2022/06/15 01:33:53;;;;;;;5.10;4.03;;;;;;;17.47;100.00;96328.69;5007397;28;20268;-84
2022/06/15 01:36:30;;;;;;;5.20;4.20;;;;;;;17.37;100.00;96327.59;5020606;28;20211;-83
2022/06/15 01:39:05;;;;;;;5.50;5.00;;;;;;;17.17;100.00;96313.97;5011014;28;20214;-84
2022/06/15 01:41:35;;;;;;;6.00;4.53;;;;;;;16.96;100.00;96317.75;5022346;28;20210;-85
2022/06/15 01:44:08;;;;;;;6.07;4.50;;;;;;;16.96;100.00;96326.75;5010335;28;20295;-84
2022/06/15 01:46:41;;;;;;;6.87;4.70;;;;;;;17.00;100.00;96316.97;5024395;28;20268;-84
2022/06/15 01:49:10;;;;;;;4.83;4.30;;;;;;;17.08;100.00;96303.88;5001771;28;20234;-84
2022/06/15 01:51:43;;;;;;;5.50;4.47;;;;;;;17.18;100.00;96310.13;5005536;28;20207;-84
2022/06/15 01:54:19;;;;;;;4.87;4.37;;;;;;;17.26;100.00;96312.31;4992291;28;20268;-84
2022/06/15 01:56:49;;;;;;;4.50;4.10;;;;;;;17.26;100.00;96317.78;5015081;28;20195;-84
2022/06/15 01:59:25;;;;;;;8.70;5.43;;;;;;;17.29;100.00;96311.75;5018971;28;20206;-83
2022/06/15 02:02:02;;;;;;;5.20;4.60;;;;;;;17.44;100.00;96310.94;5013751;28;20211;-84
2022/06/15 02:04:36;;;;;;;7.30;4.40;;;;;;;17.57;100.00;96306.84;5006649;28;20202;-84
2022/06/15 02:07:16;;;;;;;5.23;4.60;;;;;;;17.66;100.00;96299.75;5008583;28;20203;-84
2022/06/15 02:09:50;;;;;;;6.93;4.70;;;;;;;17.71;100.00;96310.66;5012635;28;20195;-84
2022/06/15 02:12:22;;;;;;;5.10;4.60;;;;;;;17.73;100.00;96305.75;5009054;28;20233;-84
2022/06/15 02:14:56;;;;;;;6.10;4.80;;;;;;;17.68;100.00;96301.13;5015339;28;20196;-85
2022/06/15 02:17:28;;;;;;;6.30;4.70;;;;;;;17.67;100.00;96293.19;5013995;28;20231;-84
2022/06/15 02:20:01;;;;;;;5.00;4.50;;;;;;;17.68;100.00;96303.03;5007252;28;20298;-84
2022/06/15 02:22:32;;;;;;;5.10;4.53;;;;;;;17.76;100.00;96311.47;5022378;28;20217;-83
2022/06/15 02:25:04;;;;;;;4.60;4.20;;;;;;;17.68;100.00;96301.13;5007721;28;20286;-84
2022/06/15 02:27:37;;;;;;;6.13;4.50;;;;;;;17.74;100.00;96282.78;5005248;28;20246;-84
2022/06/15 02:30:10;;;;;;;5.93;4.47;;;;;;;17.76;100.00;96275.16;5004771;28;20214;-84
2022/06/15 02:32:42;;;;;;;4.63;4.23;;;;;;;17.92;100.00;96279.47;5006033;28;20197;-85
2022/06/15 02:35:11;;;;;;;5.30;4.83;;;;;;;17.90;100.00;96289.84;5006384;28;20206;-84
2022/06/15 02:37:38;;;;;;;5.00;4.60;;;;;;;17.96;100.00;96283.25;5010754;28;20200;-84
2022/06/15 02:40:07;;;;;;;5.73;4.87;;;;;;;18.03;100.00;96275.59;5003173;28;20199;-85
2022/06/15 02:42:40;;;;;;;5.90;4.63;;;;;;;18.01;100.00;96269.59;5019242;28;20203;-84
2022/06/15 02:45:15;;;;;;;5.90;4.37;;;;;;;18.13;100.00;96259.16;5005100;28;20218;-84
2022/06/15 02:47:44;;;;;;;5.00;4.53;;;;;;;18.21;100.00;96259.66;5010782;28;20202;-84
2022/06/15 02:50:16;;;;;;;4.67;4.27;;;;;;;18.27;100.00;96267.59;5003231;28;20211;-84
2022/06/15 02:52:46;;;;;;;6.67;4.90;;;;;;;18.22;100.00;96266.78;5001124;28;20331;-84
2022/06/15 02:55:18;;;;;;;5.63;4.70;;;;;;;18.15;100.00;96270.63;5012267;28;20211;-84
2022/06/15 02:57:49;;;;;;;5.30;4.80;;;;;;;18.11;100.00;96269.56;5007674;28;20207;-84
2022/06/15 03:00:20;;;;;;;7.60;4.80;;;;;;;18.13;100.00;96267.34;4993782;28;20337;-83
2022/06/15 03:02:49;;;;;;;5.00;4.50;;;;;;;18.13;100.00;96272.81;5008384;28;20298;-84
2022/06/15 03:05:17;;;;;;;6.70;5.10;;;;;;;18.09;100.00;96262.75;5017485;28;20218;-85
2022/06/15 03:07:45;;;;;;;6.33;5.23;;;;;;;18.00;100.00;96251.56;4998067;28;20200;-84
2022/06/15 03:10:14;;;;;;;7.50;4.90;;;;;;;18.05;100.00;96258.91;5006073;28;20203;-83
2022/06/15 03:12:42;;;;;;;6.63;5.13;;;;;;;18.07;100.00;96265.75;5005887;28;20249;-84
2022/06/15 03:15:10;;;;;;;6.03;4.70;;;;;;;18.10;100.00;96267.94;5007682;28;20305;-83
2022/06/15 03:17:38;;;;;;;6.70;5.20;;;;;;;18.05;100.00;96253.47;5012036;28;20226;-84
2022/06/15 03:20:11;;;;;;;5.20;4.70;;;;;;;18.07;100.00;96263.00;5018868;28;20226;-84
2022/06/15 03:22:42;;;;;;;5.27;4.33;;;;;;;18.04;100.00;96265.47;5007454;28;20214;-83
2022/06/15 03:25:16;;;;;;;5.60;5.03;;;;;;;18.03;100.00;96261.94;5004244;28;20216;-85
2022/06/15 03:27:44;;;;;;;5.57;5.07;;;;;;;17.96;100.00;96245.03;5011533;28;20214;-83
2022/06/15 03:30:14;;;;;;;5.50;5.00;;;;;;;17.98;100.00;96248.31;5015733;28;20312;-84
2022/06/15 03:32:46;;;;;;;5.80;5.03;;;;;;;17.98;100.00;96256.50;5026902;28;20245;-84
2022/06/15 03:35:17;;;;;;;5.23;4.70;;;;;;;18.05;100.00;96267.94;5010684;28;20221;-84
2022/06/15 03:37:45;;;;;;;5.47;4.93;;;;;;;17.90;100.00;96253.53;5023319;28;20203;-84
2022/06/15 03:40:34;;;;;;;5.47;4.80;;;;;;;17.86;100.00;96249.72;5011904;28;20198;-85
2022/06/15 03:43:02;;;;;;;5.90;5.30;;;;;;;17.85;100.00;96248.91;5010967;28;20214;-84
2022/06/15 03:45:31;;;;;;;5.80;4.90;;;;;;;17.91;100.00;96252.44;5012305;28;20215;-84
2022/06/15 03:47:58;;;;;;;7.23;5.40;;;;;;;17.92;100.00;96249.44;5013530;28;20349;-83
2022/06/15 03:50:29;;;;;;;5.73;5.23;;;;;;;17.94;100.00;96244.50;5013026;28;20221;-84
2022/06/15 03:53:00;;;;;;;6.03;5.43;;;;;;;18.01;100.00;96253.22;5023250;28;20253;-84
2022/06/15 03:55:30;;;;;;;5.67;4.93;;;;;;;18.00;100.00;96253.50;5010949;28;20210;-84
2022/06/15 03:57:58;;;;;;;6.00;5.40;;;;;;;18.02;100.00;96259.50;5012632;28;20303;-84
2022/06/15 04:00:27;;;;;;;5.80;4.97;;;;;;;18.01;100.00;96253.22;5011626;28;20281;-84
2022/06/15 04:02:54;;;;;;;6.00;5.40;;;;;;;18.03;100.00;96256.47;5030318;28;20206;-84
2022/06/15 04:05:50;;;;;;;11.57;9.87;;;;;;;18.04;100.00;96260.84;5017093;28;20207;-84
2022/06/15 04:08:42;;;;;;;6.37;5.40;;;;;;;18.07;100.00;96273.94;5007326;28;20219;-83
2022/06/15 04:14:24;;;;;;;6.63;5.67;;;;;;;18.14;100.00;96290.84;5013344;28;20227;-83
2022/06/15 04:17:00;;;;;;;9.10;5.27;;;;;;;18.11;100.00;96280.50;5017640;28;20227;-84
2022/06/15 04:22:44;;;;;;;5.80;5.30;;;;;;;18.00;100.00;96270.69;5008258;28;20204;-84
2022/06/15 04:25:12;;;;;;;6.97;5.00;;;;;;;18.02;100.00;96254.03;5008093;28;20214;-82
2022/06/15 04:27:39;;;;;;;8.63;5.63;;;;;;;18.06;100.00;96266.84;5008033;28;20203;-81
2022/06/15 04:30:12;;;;;;;6.37;5.77;;;;;;;18.08;100.00;96263.84;5010416;28;20210;-82
2022/06/15 04:32:44;;;;;;;8.70;5.90;;;;;;;18.08;100.00;96272.84;5005749;28;20207;-82
2022/06/15 04:35:12;;;;;;;7.60;5.70;;;;;;;18.01;100.00;96266.88;5009650;28;20235;-82
2022/06/15 04:37:39;;;;;;;6.33;5.73;;;;;;;17.98;100.00;96259.22;5008552;28;20209;-81
2022/06/15 04:40:20;;;;;;;6.23;5.20;;;;;;;18.03;100.00;96261.94;5007694;28;20206;-82
2022/06/15 04:42:47;;;;;;;6.20;5.60;;;;;;;18.13;100.00;96277.47;5022935;28;20300;-83
2022/06/15 04:45:18;;;;;;;7.07;6.07;;;;;;;18.19;100.00;96286.47;4998449;28;20214;-82
2022/06/15 04:48:06;;;;;;;9.43;6.00;;;;;;;18.20;100.00;96297.13;5014866;28;20286;-82
2022/06/15 04:50:34;;;;;;;7.07;5.17;;;;;;;18.23;100.00;96303.94;5003110;28;20298;-82
2022/06/15 04:53:01;;;;;;;6.40;5.80;;;;;;;18.29;100.00;96291.91;5011448;28;20298;-82
2022/06/15 04:55:31;;;;;;;7.80;5.60;;;;;;;18.21;100.00;96289.72;5010666;28;20225;-82
2022/06/15 04:58:01;;;;;;;7.30;6.10;;;;;;;18.21;100.00;96295.19;4995874;28;20202;-82
2022/06/15 05:00:31;;;;;;;8.13;5.70;;;;;;;18.20;100.00;96293.59;5000813;28;20199;-82
2022/06/15 05:02:58;;;;;;;6.60;6.00;;;;;;;18.15;100.00;96291.66;5005726;28;20207;-82
2022/06/15 05:05:26;;;;;;;6.60;5.50;;;;;;;18.19;100.00;96297.41;5007396;28;20207;-82
2022/06/15 05:07:53;;;;;;;9.77;6.07;;;;;;;18.24;100.00;96302.84;5007230;28;20289;-83
2022/06/15 05:10:23;;;;;;;7.53;5.73;;;;;;;18.28;100.00;96302.03;5005666;28;20211;-82
2022/06/15 05:12:54;;;;;;;6.97;6.07;;;;;;;18.31;100.00;96295.16;5015539;28;20210;-82
2022/06/15 05:15:25;;;;;;;6.20;5.70;;;;;;;18.38;100.00;96309.31;5012158;28;20329;-82
2022/06/15 05:18:02;;;;;;;6.87;5.83;;;;;;;18.45;100.00;96312.59;5007531;28;20542;-82
2022/06/15 05:20:29;;;;;;;11.90;6.60;;;;;;;18.37;100.00;96315.91;5004599;28;20207;-82
2022/06/15 05:22:57;;;;;;;8.03;5.87;;;;;;;18.34;100.00;96320.03;5001782;28;20200;-82
2022/06/15 05:25:45;;;;;;;6.50;5.90;;;;;;;18.30;100.00;96338.06;5023684;28;20265;-82
2022/06/15 05:28:14;;;;;;;7.00;5.70;;;;;;;18.35;100.00;96324.41;5006467;28;20243;-81
2022/06/15 05:30:43;;;;;;;6.73;5.80;;;;;;;18.39;100.00;96330.09;4994709;28;20215;-81
2022/06/15 05:33:14;;;;;;;8.10;6.03;;;;;;;18.34;100.00;96321.94;4996636;28;20211;-81
2022/06/15 05:35:41;;;;;;;7.17;6.47;;;;;;;18.36;100.00;96314.28;4999816;28;20235;-81
2022/06/15 05:38:10;;;;;;;6.63;5.93;;;;;;;18.25;100.00;96313.50;5003556;28;20228;-81
2022/06/15 05:40:38;;;;;;;7.27;6.50;;;;;;;18.22;100.00;96314.06;5007836;28;20230;-81
2022/06/15 05:43:07;;;;;;;8.57;6.60;;;;;;;18.25;100.00;96318.97;5006397;28;20203;-81
2022/06/15 05:45:40;;;;;;;7.37;6.67;;;;;;;18.32;100.00;96308.53;5009398;28;20202;-80
2022/06/15 05:48:08;;;;;;;7.43;6.63;;;;;;;18.34;100.00;96311.00;5012889;28;20235;-80
2022/06/15 05:50:38;;;;;;;9.30;6.83;;;;;;;18.37;100.00;96310.44;5004528;28;20209;-81
2022/06/15 05:53:15;;;;;;;9.63;6.77;;;;;;;18.51;100.00;96322.41;5004662;28;20262;-81
2022/06/15 05:55:42;;;;;;;12.97;6.90;;;;;;;18.59;100.00;96323.75;5020286;28;20273;-81
2022/06/15 05:58:09;;;;;;;8.63;6.40;;;;;;;18.56;100.00;96319.63;5007248;28;20226;-81
2022/06/15 06:00:37;;;;;;;10.40;6.40;;;;;;;18.56;100.00;96329.75;5007417;28;20210;-80
2022/06/15 06:03:06;;;;;;;9.13;6.70;;;;;;;18.51;100.00;96323.22;5003019;28;20211;-81
2022/06/15 06:05:33;;;;;;;9.03;6.37;;;;;;;18.50;100.00;96326.25;5000392;28;20375;-81
2022/06/15 06:08:00;;;;;;;7.67;6.40;;;;;;;18.54;100.00;96322.66;5014589;28;20207;-80
2022/06/15 06:10:27;;;;;;;9.37;6.60;;;;;;;18.52;100.00;96319.41;5020467;28;20226;-80
2022/06/15 06:12:54;;;;;;;9.00;6.43;;;;;;;18.59;100.00;96318.28;5017489;28;20222;-81
2022/06/15 06:15:21;;;;;;;9.53;6.40;;;;;;;18.69;100.00;96318.25;5014939;28;20234;-80
2022/06/15 06:17:48;;;;;;;9.53;7.17;;;;;;;18.78;100.00;96333.78;5020464;28;20260;-80
2022/06/15 06:20:17;;;;;;;11.00;6.60;;;;;;;18.92;100.00;96331.22;5004850;28;20207;-80
2022/06/15 06:22:44;;;;;;;7.37;6.47;;;;;;;18.84;100.00;96338.13;5004628;28;20204;-80
2022/06/15 06:25:11;;;;;;;8.83;6.60;;;;;;;18.77;100.00;96326.66;5004667;28;20224;-80
2022/06/15 06:27:38;;;;;;;6.87;6.13;;;;;;;18.68;100.00;96317.44;5005172;28;20203;-81
2022/06/15 06:30:07;;;;;;;9.00;6.90;;;;;;;18.71;100.00;96319.59;5006427;28;20229;-81
2022/06/15 06:32:34;;;;;;;8.77;6.87;;;;;;;18.78;100.00;96324.75;5018575;28;20209;-80
2022/06/15 06:35:01;;;;;;;11.27;7.03;;;;;;;18.79;100.00;96340.91;5001177;28;20293;-81
2022/06/15 06:37:33;;;;;;;8.50;6.20;;;;;;;18.85;100.00;96349.88;5001036;28;20207;-82
2022/06/15 06:40:00;;;;;;;8.13;6.20;;;;;;;19.01;100.00;96336.91;4999393;28;20204;-82
2022/06/15 06:42:28;;;;;;;7.13;6.43;;;;;;;19.08;100.00;96323.72;5009274;28;20215;-82
2022/06/15 06:44:56;;;;;;;8.35;6.57;;;;;;;19.08;100.00;96321.00;5020037;28;20227;-82
2022/06/15 06:47:23;;;;;;;9.03;6.87;;;;;;;18.93;100.00;96300.03;5009597;28;20202;-82
2022/06/15 06:49:50;;;;;;;8.13;7.20;;;;;;;18.88;100.00;96314.53;5014508;28;20235;-83
2022/06/15 06:52:17;;;;;;;9.20;6.80;;;;;;;18.92;100.00;96333.13;5009078;28;20215;-82
2022/06/15 06:54:46;;;;;;;8.50;7.70;;;;;;;18.92;100.00;96353.13;5022044;28;20250;-83
2022/06/15 06:57:13;;;;;;;9.20;7.30;;;;;;;18.77;100.00;96354.03;5012994;28;20218;-83
2022/06/15 06:59:40;;;;;;;7.57;6.77;;;;;;;18.82;100.00;96354.00;5015567;28;20215;-83
2022/06/15 07:02:07;;;;;;;8.37;6.47;;;;;;;18.87;100.00;96339.47;5006221;28;20207;-83
2022/06/15 07:04:35;;;;;;;6.80;6.00;;;;;;;19.03;100.00;96340.19;5012845;28;20277;-82
2022/06/15 07:07:02;;;;;;;10.60;6.63;;;;;;;19.15;100.00;96338.72;5000057;28;20214;-82
2022/06/15 07:09:29;;;;;;;8.07;7.28;;;;;;;19.22;100.00;96343.91;5015601;28;20269;-82
2022/06/15 07:11:58;;;;;;;7.70;6.57;;;;;;;19.29;100.00;96355.34;5020875;28;20227;-82
2022/06/15 07:14:25;;;;;;;8.13;6.75;;;;;;;19.37;100.00;96346.50;5007970;28;20251;-82
2022/06/15 07:16:52;;;;;;;6.95;6.15;;;;;;;19.31;100.00;96341.38;5006783;28;20229;-82
2022/06/15 07:19:19;;;;;;;8.48;5.55;;;;;;;19.43;100.00;96337.16;5010989;28;20287;-82
2022/06/15 07:21:46;;;;;;;6.43;5.13;;;;;;;19.84;100.00;96329.41;5010468;28;20199;-82
2022/06/15 07:24:13;;;;;;;9.35;5.88;;;;;;;20.29;100.00;96330.00;5015290;28;20207;-82
2022/06/15 07:26:43;;;;;;;6.85;5.65;;;;;;;20.81;100.00;96334.59;5011942;28;20221;-82
2022/06/15 07:29:14;;;;;;;7.40;5.32;;;;;;;21.20;100.00;96328.00;5007689;28;20226;-82
2022/06/15 07:31:47;;;;;;;8.10;5.35;;;;;;;21.44;100.00;96310.28;5024885;28;20207;-82
2022/06/15 07:34:14;;;;;;;7.20;6.07;;;;;;;21.44;100.00;96309.47;5015950;28;20208;-82
2022/06/15 07:36:46;;;;;;;8.70;5.35;;;;;;;21.52;100.00;96319.81;5003299;28;20206;-83
2022/06/15 07:39:15;;;;;;;5.90;5.18;;;;;;;21.43;100.00;96329.84;5013739;28;20309;-83
2022/06/15 07:41:43;;;;;;;10.40;6.90;;;;;;;21.42;100.00;96323.53;5013017;28;20206;-82
2022/06/15 07:44:10;;;;;;;7.57;5.85;;;;;;;21.47;100.00;96328.13;5009461;28;20211;-82
2022/06/15 07:46:38;;;;;;;7.32;5.15;;;;;;;21.59;99.83;96331.22;5015581;28;20202;-82
2022/06/15 07:51:54;;;;;;;6.80;5.00;;;;;;;22.33;96.97;96323.81;5012182;28;20222;-83
2022/06/15 07:54:22;;;;;;;7.40;5.35;;;;;;;22.78;89.63;96335.84;5008279;28;20298;-83
2022/06/15 07:56:51;;;;;;;8.23;6.32;;;;;;;23.18;88.82;96355.34;5010489;28;20223;-82
2022/06/15 07:59:20;;;;;;;11.40;7.15;;;;;;;23.31;89.39;96348.97;5010116;28;20199;-82
2022/06/15 08:01:48;;;;;;;9.35;6.60;;;;;;;23.07;89.98;96329.97;5025621;28;20273;-82
2022/06/15 08:04:16;;;;;;;10.30;6.30;;;;;;;22.86;90.93;96328.81;5025993;28;20297;-83
2022/06/15 08:06:45;;;;;;;6.35;5.60;;;;;;;22.64;90.47;96329.50;5014290;28;20229;-82
2022/06/15 08:09:13;;;;;;;10.30;6.53;;;;;;;22.39;94.88;96330.03;5006856;28;20214;-82
2022/06/15 08:12:11;;;;;;;8.05;6.07;;;;;;;22.19;97.64;96334.84;5010499;28;20295;-82
2022/06/15 08:14:31;;;;;;;10.50;6.20;;;;;;;22.29;100.00;96339.28;5009600;28;20219;-82
2022/06/15 08:17:00;;;;;;;6.55;5.20;;;;;;;22.71;100.00;96345.63;5024302;28;20238;-83
2022/06/15 08:19:30;;;;;;;10.88;6.00;;;;;;;23.00;95.33;96335.91;5005768;28;20261;-83
2022/06/15 08:21:57;;;;;;;7.47;6.65;;;;;;;23.02;90.81;96333.66;5010452;28;20215;-83
2022/06/15 08:24:24;;;;;;;8.93;6.93;;;;;;;22.99;91.63;96336.22;5008141;28;20211;-82
2022/06/15 08:26:51;;;;;;;8.57;6.40;;;;;;;23.05;92.13;96337.75;5007194;28;20206;-83
2022/06/15 08:29:19;;;;;;;7.32;6.32;;;;;;;23.42;90.08;96328.31;4995287;28;20227;-83
2022/06/15 08:31:46;;;;;;;9.20;6.20;;;;;;;23.65;89.59;96334.66;5013819;28;20207;-83
2022/06/15 08:34:15;;;;;;;12.65;6.32;;;;;;;23.68;86.08;96323.00;5016071;28;20214;-83
2022/06/15 08:36:42;;;;;;;6.60;5.90;;;;;;;23.79;85.14;96331.84;5023900;28;20227;-83
2022/06/15 08:39:09;;;;;;;7.45;5.50;;;;;;;24.03;84.74;96338.66;5022993;28;20212;-83
2022/06/15 08:41:45;;;;;;;13.43;6.35;;;;;;;24.26;83.93;96331.16;5009514;28;20206;-83
2022/06/15 08:44:26;;;;;;;6.68;5.93;;;;;;;24.14;83.19;96337.25;5011385;28;20211;-83
2022/06/15 08:47:02;;;;;;;10.60;6.15;;;;;;;23.99;84.99;96336.81;5013121;28;20282;-83
2022/06/15 08:49:42;;;;;;;7.93;5.93;;;;;;;24.12;86.88;96328.47;5005511;28;20237;-84
2022/06/15 08:52:15;;;;;;;8.05;5.68;;;;;;;24.40;86.48;96334.63;5014835;28;20208;-83
2022/06/15 08:54:53;;;;;;;8.30;6.00;;;;;;;24.75;85.04;96335.53;5005403;28;20211;-83
2022/06/15 08:57:24;;;;;;;6.38;5.75;;;;;;;24.69;85.11;96323.03;5010485;28;20238;-83
2022/06/15 08:59:58;;;;;;;6.50;5.82;;;;;;;24.98;84.53;96332.69;5004037;28;20210;-83
2022/06/15 09:02:32;;;;;;;8.77;6.10;;;;;;;24.91;82.39;96324.06;5017176;28;20222;-83
2022/06/15 09:05:07;;;;;;;11.10;5.75;;;;;;;24.67;83.48;96330.03;5008119;28;20231;-83
2022/06/15 09:07:57;;;;;;;6.30;5.68;;;;;;;24.63;83.05;96334.53;5024787;28;20268;-83
2022/06/15 09:10:37;;;;;;;6.93;5.32;;;;;;;25.04;83.17;96328.63;4998693;28;20191;-83
2022/06/15 09:13:22;;;;;;;6.13;5.53;;;;;;;25.16;80.68;96328.84;5021878;28;20386;-83
2022/06/15 09:15:57;;;;;;;7.43;5.10;;;;;;;25.03;78.46;96315.97;5022554;28;20254;-83
2022/06/15 09:18:30;;;;;;;7.13;5.40;;;;;;;24.96;78.38;96323.91;5010835;28;20297;-83
2022/06/15 09:21:06;;;;;;;6.43;5.10;;;;;;;24.95;77.94;96336.09;5014213;28;20208;-83
2022/06/15 09:23:40;;;;;;;6.57;5.30;;;;;;;25.09;76.74;96326.56;5002260;28;20211;-83
2022/06/15 09:26:13;;;;;;;10.30;5.03;;;;;;;25.40;79.55;96320.88;5013670;28;20207;-83
2022/06/15 09:28:44;;;;;;;7.15;5.30;;;;;;;25.51;73.91;96321.34;5007064;28;20257;-83
2022/06/15 09:31:18;;;;;;;7.45;5.22;;;;;;;25.66;73.05;96322.81;5009829;28;20206;-83
2022/06/15 09:33:52;;;;;;;9.13;4.72;;;;;;;25.56;70.75;96324.75;5005927;28;20262;-83
2022/06/15 09:36:23;;;;;;;5.40;4.90;;;;;;;25.94;71.00;96322.13;4999435;28;20337;-83
2022/06/15 09:38:51;;;;;;;7.53;4.72;;;;;;;26.13;69.33;96321.72;5003501;28;20227;-83
2022/06/15 09:41:24;;;;;;;5.70;4.88;;;;;;;26.38;67.74;96320.03;5005468;28;20211;-83
2022/06/15 09:44:03;;;;;;;6.97;5.15;;;;;;;26.67;65.88;96320.06;5022108;28;20298;-83
2022/06/15 09:46:39;;;;;;;7.25;4.53;;;;;;;26.86;65.26;96311.34;5019523;28;20231;-83
2022/06/15 09:49:21;;;;;;;7.40;4.68;;;;;;;26.96;65.25;96310.16;5003312;28;20238;-83
2022/06/15 09:52:03;;;;;;;6.32;4.47;;;;;;;27.06;64.36;96318.88;5009581;28;20211;-83
2022/06/15 09:54:36;;;;;;;6.82;5.10;;;;;;;27.33;65.12;96323.09;5018386;28;20207;-83
2022/06/15 09:57:03;;;;;;;5.38;4.88;;;;;;;26.84;67.67;96321.13;5002048;28;20317;-83
2022/06/15 09:59:33;;;;;;;6.85;4.93;;;;;;;26.97;66.93;96322.84;5007014;28;20227;-84
2022/06/15 10:02:01;;;;;;;5.47;4.55;;;;;;;27.01;63.76;96329.34;5021815;28;20219;-83
2022/06/15 10:04:31;;;;;;;6.40;4.80;;;;;;;27.05;64.12;96335.88;5007882;28;20202;-84
2022/06/15 10:07:03;;;;;;;5.28;4.78;;;;;;;26.93;61.97;96319.97;5017663;28;20289;-83
2022/06/15 10:09:37;;;;;;;7.25;4.60;;;;;;;26.90;60.40;96323.34;5010183;28;20289;-84
2022/06/15 10:15:16;;;;;;;7.47;4.50;;;;;;;26.82;63.50;96332.53;4999724;28;20222;-83
2022/06/15 10:17:48;;;;;;;5.07;4.57;;;;;;;26.81;64.62;96336.44;5016449;28;20258;-83
2022/06/15 10:20:29;;;;;;;5.43;4.93;;;;;;;26.49;65.07;96329.59;5002593;28;20207;-84
2022/06/15 10:23:00;;;;;;;5.53;4.70;;;;;;;26.33;65.82;96323.00;5007377;28;20218;-84
2022/06/15 10:25:30;;;;;;;5.13;4.60;;;;;;;26.66;65.91;96325.94;5004144;28;20268;-83
2022/06/15 10:28:13;;;;;;;5.78;5.05;;;;;;;26.96;64.05;96315.72;5023475;28;20203;-80
2022/06/15 10:30:58;;;;;;;7.03;4.90;;;;;;;27.12;63.68;96325.06;5007745;28;20303;-83
2022/06/15 10:33:36;;;;;;;6.57;4.70;;;;;;;27.20;64.51;96323.38;5004398;28;20215;-84
2022/06/15 10:36:14;;;;;;;5.38;4.68;;;;;;;27.27;63.38;96326.41;5004933;28;20230;-81
2022/06/15 10:38:58;;;;;;;5.57;4.82;;;;;;;27.29;63.53;96310.25;5006575;28;20330;-80
2022/06/15 10:41:49;;;;;;;5.20;4.70;;;;;;;27.53;61.83;96318.69;5006580;28;20204;-80
2022/06/15 10:44:29;;;;;;;6.38;4.68;;;;;;;27.53;59.46;96302.03;5011191;28;20211;-82
2022/06/15 10:47:02;;;;;;;7.72;4.97;;;;;;;27.51;57.59;96301.56;5006512;28;20253;-84
2022/06/15 10:49:33;;;;;;;5.15;4.65;;;;;;;27.63;58.33;96296.13;5020587;28;20239;-83
2022/06/15 10:52:01;;;;;;;5.32;4.47;;;;;;;27.75;55.47;96309.19;5013869;28;20211;-82
2022/06/15 11:02:06;;;;;;;5.53;4.75;;;;;;;27.82;55.95;96293.63;5018356;28;20210;-83
2022/06/15 11:03:15;;;;;;;5.78;4.15;;;;;;;28.39;54.25;96290.06;5026936;28;20234;-83
2022/06/15 11:05:45;;;;;;;6.78;4.28;;;;;;;28.39;52.51;96287.28;5028978;28;20197;-83
2022/06/15 11:08:16;;;;;;;5.88;4.63;;;;;;;28.17;54.50;96284.94;5027823;28;20221;-83
2022/06/15 11:10:48;;;;;;;7.22;4.45;;;;;;;28.28;54.33;96280.56;4992194;28;20294;-85
2022/06/15 11:13:35;;;;;;;7.57;4.13;;;;;;;28.37;49.06;96278.50;5011620;28;20199;-84
2022/06/15 11:19:08;;;;;;;5.93;4.07;;;;;;;28.61;52.14;96275.72;5021414;28;20344;-83
2022/06/15 11:21:41;;;;;;;7.78;4.20;;;;;;;28.96;50.57;96269.69;5011256;28;20242;-83
2022/06/15 11:24:18;;;;;;;4.40;4.00;;;;;;;29.14;51.89;96275.78;5020163;28;20210;-82
2022/06/15 11:26:54;;;;;;;4.35;3.95;;;;;;;29.40;50.20;96267.03;5014858;28;20222;-83
2022/06/15 11:29:35;;;;;;;8.68;4.68;;;;;;;29.27;49.94;96275.38;5023009;28;20212;-82
2022/06/15 11:32:13;;;;;;;5.90;3.80;;;;;;;29.15;49.04;96277.41;5013782;28;20234;-83
2022/06/15 11:34:51;;;;;;;4.05;3.75;;;;;;;29.38;51.58;96266.59;5030001;28;20207;-84
2022/06/15 11:37:23;;;;;;;4.53;4.07;;;;;;;29.63;48.70;96262.53;5014591;28;20227;-82
2022/06/15 11:39:56;;;;;;;5.70;3.95;;;;;;;29.91;46.41;96259.72;5000149;28;20254;-81
2022/06/15 11:42:25;;;;;;;5.97;3.85;;;;;;;30.20;44.66;96259.31;5004991;28;20227;-81
2022/06/15 11:44:53;;;;;;;3.50;3.20;;;;;;;30.32;42.12;96256.47;5002394;28;20262;-82
2022/06/15 11:47:30;;;;;;;4.80;3.58;;;;;;;30.61;43.56;96249.66;5022622;28;20192;-82
2022/06/15 11:50:07;;;;;;;4.13;3.83;;;;;;;30.87;43.32;96254.66;5021924;28;20281;-83
2022/06/15 11:52:45;;;;;;;5.60;3.47;;;;;;;30.93;40.76;96247.59;5013126;28;20199;-83
2022/06/15 11:55:26;;;;;;;3.13;2.92;;;;;;;30.98;37.71;96246.50;5020254;28;20204;-82
2022/06/15 11:58:20;;;;;;;6.22;3.83;;;;;;;30.95;38.82;96247.25;5012076;28;20277;-83
2022/06/15 12:00:55;;;;;;;4.03;3.33;;;;;;;30.83;40.34;96235.03;4991428;28;20208;-83
2022/06/15 12:03:58;;;;;;;6.03;3.42;;;;;;;30.88;40.40;96244.31;5016254;28;20214;-83
2022/06/15 12:06:29;;;;;;;4.25;3.60;;;;;;;30.49;43.66;96235.78;4969570;28;20203;-83
2022/06/15 12:09:05;;;;;;;4.00;3.60;;;;;;;30.39;43.29;96236.31;5007260;28;20213;-83
2022/06/15 12:14:36;;;;;;;4.20;3.63;;;;;;;30.23;44.23;96227.19;5020090;28;20206;-81